Chiang Mai, Thailand

5:30 PM ICT on January 30, 2015 (GMT +0700)
ThaiWx Station | Change Station
CLOSE
Current Station
Personal Weather Station
Location: Chiang Mai, Pa Daet
Elevation: 1007 ft
Nearby Weather Stations

Elev 1007 ft 18.77 °N, 98.97 °E | Updated 3 minutes ago

Clear
Clear
85.3 °F
Feels Like 85 °F
N
0.0
Wind Variable Wind from North
Gusts 0.0 mph

Today
High -- | Low -- °F
--% Chance of Precip.
Yesterday
High -- | Low -- °F
Precip. -- in
6:58 AM 6:16 PM
Waxing Gibbous, 81% visible
Pressure 29.95 in
Visibility -9999.0 miles
Clouds
Heat Index 85 °F
Dew Point 61 °F
Humidity 44%
Rainfall 0.00 in
Snow Depth Not available.
UV Not available.
Pollen Not available.
Air Quality Not available.
Flu Activity Not available.
METAR VTCC 301000Z 03002KT CAVOK 31/10 Q1014 A2994 NOSIG

More Conditions Fewer Conditions

Pressure 29.95 in
Visibility -9999.0 miles
Clouds
Heat Index 85 °F
Dew Point 61 °F
Humidity 44%
Rainfall 0.00 in
Snow Depth Not available.
UV Not available.
Pollen Not available.
Air Quality Not available.
Flu Activity Not available.
METAR VTCC 301000Z 03002KT CAVOK 31/10 Q1014 A2994 NOSIG

More Conditions Fewer Conditions

10-Day Weather Forecast

Almanac

Astronomy

Jan. 30, 2015 Rise Set
Actual Time
Civil Twilight
Nautical Twilight
Astronomical Twilight
Moon
Length of Visible Light
Length of Day
Tomorrow will be .
, % of the Moon is Illuminated

Today's Extremes

Country Highs Country Lows

Community

WunderPhotos

Upload Photos

1,791,736 photos uploaded!

WunderBlogs® & News

Nearby

Air Quality

  Air Quality AQ Index Pollutant
Not available.

Snow Depth

Station Depth Elevation

Earthquake Activity

City Distance Mag. Time & Date
Minimum magnitude displayed is 2.5.

Coastal Water Temperatures

Place Temperature

Nearby Weather Stations